Time;durP1;ratioP1;P1;durP2;ratioP2;P2;SDS_P1;SDS_P2;PMS_P1;PMS_P2;Temp;Humidity;BMP_temperature;BMP_pressure;BME280_temperature;BME280_humidity;BME280_pressure;Samples;Min_cycle;Max_cycle;Signal;HPM_P1;HPM_P2
2023/06/13 03:01:40;;;;;;;4.00;2.28;;;25.00;35.20;;;;;;5392857;23;46113;-58
2023/06/13 03:04:06;;;;;;;2.33;1.88;;;25.00;35.20;;;;;;4960941;28;45316;-56
2023/06/13 03:06:31;;;;;;;4.28;2.30;;;25.00;35.20;;;;;;4941568;28;45025;-59
2023/06/13 03:08:58;;;;;;;2.83;2.40;;;25.00;35.20;;;;;;4965520;28;45007;-58
2023/06/13 03:11:24;;;;;;;3.03;2.67;;;24.90;35.80;;;;;;4951537;28;45214;-60
2023/06/13 03:13:50;;;;;;;3.38;2.10;;;24.90;35.20;;;;;;4955488;28;44999;-59
2023/06/13 03:16:17;;;;;;;4.82;2.35;;;24.90;35.20;;;;;;4920729;28;45940;-59
2023/06/13 03:18:43;;;;;;;2.65;2.15;;;24.90;35.20;;;;;;4927776;28;45569;-64
2023/06/13 03:21:09;;;;;;;2.40;2.20;;;24.90;35.20;;;;;;4944228;28;45544;-62
2023/06/13 03:23:34;;;;;;;3.05;2.08;;;24.90;35.30;;;;;;4917201;28;44999;-63
2023/06/13 03:26:01;;;;;;;4.53;2.45;;;24.90;35.30;;;;;;4944286;28;45885;-61
2023/06/13 03:28:27;;;;;;;4.10;2.38;;;24.90;35.30;;;;;;4935497;28;45664;-62
2023/06/13 03:30:54;;;;;;;4.10;2.28;;;24.80;35.20;;;;;;4925753;28;45343;-62
2023/06/13 03:33:20;;;;;;;4.65;2.28;;;24.80;35.30;;;;;;4931706;28;45370;-61
2023/06/13 03:35:46;;;;;;;2.67;1.90;;;24.80;35.30;;;;;;4945549;28;45060;-61
2023/06/13 03:38:12;;;;;;;4.25;2.05;;;24.80;35.30;;;;;;4933522;28;45197;-63
2023/06/13 03:40:38;;;;;;;4.90;2.22;;;24.80;35.40;;;;;;4928686;28;45484;-63
2023/06/13 03:43:04;;;;;;;6.10;2.53;;;24.80;35.40;;;;;;4939791;28;45685;-61
2023/06/13 03:45:29;;;;;;;2.58;2.05;;;24.80;35.40;;;;;;4952741;28;45171;-60
2023/06/13 03:47:55;;;;;;;5.63;2.17;;;24.80;35.40;;;;;;4949043;28;45229;-61
2023/06/13 03:50:20;;;;;;;2.40;1.85;;;24.70;35.40;;;;;;4940310;28;46299;-62
2023/06/13 03:52:46;;;;;;;4.30;2.10;;;24.70;35.50;;;;;;4953008;28;45239;-60
2023/06/13 03:55:13;;;;;;;2.42;2.22;;;24.70;35.50;;;;;;4959818;28;45006;-62
2023/06/13 03:57:39;;;;;;;2.75;2.20;;;24.60;35.60;;;;;;4950660;28;46784;-61
2023/06/13 04:00:08;;;;;;;6.47;2.28;;;24.60;35.60;;;;;;4932216;28;45366;-62
2023/06/13 04:02:33;;;;;;;4.00;2.20;;;24.60;35.60;;;;;;4955829;28;45217;-60
2023/06/13 04:05:00;;;;;;;2.38;2.00;;;24.50;35.60;;;;;;4949092;28;45322;-59
2023/06/13 04:07:26;;;;;;;2.20;2.00;;;24.50;35.70;;;;;;4938587;28;45432;-59
2023/06/13 04:09:52;;;;;;;5.00;2.17;;;24.50;35.70;;;;;;4931830;28;45225;-59
2023/06/13 04:12:18;;;;;;;6.55;2.20;;;24.50;35.70;;;;;;4943121;28;45039;-60
2023/06/13 04:14:43;;;;;;;2.20;1.90;;;24.50;35.80;;;;;;4962968;28;45006;-61
2023/06/13 04:17:09;;;;;;;4.22;2.05;;;24.50;35.80;;;;;;4949814;28;45141;-60
2023/06/13 04:19:35;;;;;;;3.63;1.85;;;24.50;35.80;;;;;;4931263;28;45427;-60
2023/06/13 04:22:01;;;;;;;3.83;2.25;;;24.50;35.90;;;;;;4956485;28;45200;-60
2023/06/13 04:24:27;;;;;;;3.28;2.30;;;24.40;35.90;;;;;;4961413;28;45264;-58
2023/06/13 04:26:52;;;;;;;2.53;2.30;;;24.40;36.00;;;;;;4944084;28;45542;-60
2023/06/13 04:29:19;;;;;;;3.00;2.30;;;24.40;36.10;;;;;;4950477;28;46811;-61
2023/06/13 04:31:45;;;;;;;3.63;2.38;;;24.40;36.20;;;;;;4936004;28;45429;-57
2023/06/13 04:34:11;;;;;;;4.82;2.63;;;24.40;36.20;;;;;;4943466;28;45140;-59
2023/06/13 04:36:38;;;;;;;2.47;2.25;;;24.40;36.20;;;;;;4958379;28;45794;-60
2023/06/13 04:39:06;;;;;;;5.90;2.30;;;24.40;36.20;;;;;;4946342;28;45875;-63
2023/06/13 04:41:35;;;;;;;4.25;2.33;;;24.40;36.30;;;;;;4954673;28;45115;-60
2023/06/13 04:44:19;;;;;;;3.03;2.33;;;24.40;36.40;;;;;;4952513;28;45485;-59
2023/06/13 04:46:45;;;;;;;3.78;2.30;;;24.40;36.40;;;;;;4927866;28;45645;-62
2023/06/13 04:49:11;;;;;;;4.18;2.42;;;24.40;36.40;;;;;;4945937;28;46920;-60
2023/06/13 04:51:37;;;;;;;6.05;2.20;;;24.40;36.50;;;;;;4937711;28;45450;-61
2023/06/13 04:54:08;;;;;;;3.20;2.28;;;24.40;36.60;;;;;;4949646;28;44730;-62
2023/06/13 04:56:34;;;;;;;4.28;2.17;;;24.40;36.70;;;;;;4950388;28;45183;-58
2023/06/13 04:59:00;;;;;;;3.45;2.40;;;24.40;36.70;;;;;;4938313;28;47080;-56
2023/06/13 05:01:26;;;;;;;3.13;2.13;;;24.40;36.70;;;;;;4923567;28;45249;-59
2023/06/13 05:03:53;;;;;;;3.35;2.28;;;24.40;36.80;;;;;;4948705;28;44938;-58
2023/06/13 05:06:21;;;;;;;3.55;2.22;;;24.40;36.80;;;;;;4924547;28;45565;-57
2023/06/13 05:08:47;;;;;;;3.42;2.20;;;24.40;36.90;;;;;;4959785;28;46151;-59
2023/06/13 05:11:13;;;;;;;4.03;2.80;;;24.40;36.90;;;;;;4921969;28;45044;-59
2023/06/13 05:13:38;;;;;;;4.20;2.92;;;24.40;36.90;;;;;;4949232;28;45175;-58
2023/06/13 05:16:04;;;;;;;4.55;2.95;;;24.40;36.90;;;;;;4955777;28;45184;-59
2023/06/13 05:18:31;;;;;;;4.43;3.13;;;24.40;36.90;;;;;;4964669;28;45369;-56
2023/06/13 05:20:57;;;;;;;7.50;3.50;;;24.40;36.90;;;;;;4938940;28;44929;-58
2023/06/13 05:23:23;;;;;;;4.60;3.47;;;24.40;37.00;;;;;;4943677;28;45075;-57
2023/06/13 05:25:48;;;;;;;6.78;3.20;;;24.40;37.00;;;;;;4936297;28;45152;-58
2023/06/13 05:28:16;;;;;;;6.40;2.95;;;24.40;37.00;;;;;;4947952;28;46655;-58
2023/06/13 05:30:42;;;;;;;3.78;2.97;;;24.40;37.00;;;;;;4951065;28;45015;-56
2023/06/13 05:33:08;;;;;;;3.25;2.63;;;24.30;37.00;;;;;;4952857;28;44977;-59
2023/06/13 05:35:34;;;;;;;3.58;2.42;;;24.30;36.90;;;;;;4938809;28;46950;-59
2023/06/13 05:37:59;;;;;;;4.57;2.70;;;24.30;37.00;;;;;;4963745;28;45457;-58
2023/06/13 05:40:25;;;;;;;4.13;2.60;;;24.30;36.90;;;;;;4956986;28;44678;-57
2023/06/13 05:42:50;;;;;;;3.97;2.75;;;24.30;36.90;;;;;;4954242;28;44834;-60
2023/06/13 05:45:16;;;;;;;5.72;2.25;;;24.30;37.00;;;;;;4942923;28;45176;-60
2023/06/13 05:47:42;;;;;;;4.20;2.25;;;24.30;36.90;;;;;;4960955;28;45271;-60
2023/06/13 05:50:07;;;;;;;3.38;2.40;;;24.30;36.90;;;;;;4960795;28;45013;-60
2023/06/13 05:52:33;;;;;;;4.05;2.47;;;24.30;37.00;;;;;;4953831;28;45304;-58
2023/06/13 05:55:00;;;;;;;4.80;2.05;;;24.40;37.00;;;;;;4950126;28;45298;-59
2023/06/13 05:57:39;;;;;;;2.63;2.00;;;24.40;37.00;;;;;;4953474;28;46282;-58
2023/06/13 06:00:12;;;;;;;3.08;2.28;;;24.40;37.00;;;;;;4935419;28;45378;-59
2023/06/13 06:02:39;;;;;;;2.95;2.35;;;24.40;36.90;;;;;;4912767;28;44889;-55
2023/06/13 06:05:05;;;;;;;4.65;2.05;;;24.50;36.90;;;;;;4946112;28;44898;-63
2023/06/13 06:07:31;;;;;;;4.32;2.17;;;24.50;36.90;;;;;;4942858;28;46129;-59
2023/06/13 06:09:57;;;;;;;4.63;2.53;;;24.60;36.90;;;;;;4948411;28;45230;-60
2023/06/13 06:12:22;;;;;;;2.78;1.90;;;24.60;36.90;;;;;;4939600;28;45176;-60
2023/06/13 06:14:48;;;;;;;4.40;2.17;;;24.70;37.00;;;;;;4952082;28;45130;-59
2023/06/13 06:17:13;;;;;;;4.90;2.33;;;24.70;36.70;;;;;;4921641;28;45768;-60
2023/06/13 06:19:39;;;;;;;2.50;1.80;;;24.70;36.40;;;;;;4957409;28;45038;-60
2023/06/13 06:22:05;;;;;;;2.95;2.00;;;24.70;36.50;;;;;;4955825;28;45021;-59
2023/06/13 06:24:32;;;;;;;3.30;1.80;;;24.80;36.50;;;;;;4958270;28;45129;-58
2023/06/13 06:26:59;;;;;;;3.15;2.00;;;24.80;36.50;;;;;;4941444;28;45663;-60
2023/06/13 06:29:24;;;;;;;3.65;1.92;;;24.80;36.40;;;;;;4962466;28;44908;-61
2023/06/13 06:31:50;;;;;;;2.80;2.17;;;24.90;36.30;;;;;;4936091;28;44947;-59
2023/06/13 06:34:15;;;;;;;2.47;2.10;;;24.90;36.90;;;;;;4944930;28;45596;-59
2023/06/13 06:36:41;;;;;;;3.33;2.00;;;25.00;36.20;;;;;;4960855;28;45238;-60
2023/06/13 06:39:06;;;;;;;2.10;1.65;;;25.00;36.00;;;;;;4943965;28;45021;-60
2023/06/13 06:41:32;;;;;;;2.88;2.30;;;25.00;36.00;;;;;;4957680;28;45006;-59
2023/06/13 06:43:58;;;;;;;4.82;1.90;;;25.10;36.10;;;;;;4945567;28;45499;-61
2023/06/13 06:46:23;;;;;;;2.88;2.28;;;25.10;35.80;;;;;;4958110;28;45590;-60
2023/06/13 06:48:49;;;;;;;5.07;2.28;;;25.20;35.90;;;;;;4940261;28;45181;-61
2023/06/13 06:51:14;;;;;;;3.88;2.00;;;25.20;35.80;;;;;;4957643;28;44932;-60
2023/06/13 06:53:40;;;;;;;3.05;2.22;;;25.30;35.80;;;;;;4962946;28;45168;-60
2023/06/13 06:56:06;;;;;;;4.38;1.67;;;25.30;35.50;;;;;;4956370;28;45809;-59
2023/06/13 06:58:31;;;;;;;2.75;1.88;;;25.40;35.60;;;;;;4961764;28;44986;-59
2023/06/13 07:00:57;;;;;;;3.47;2.13;;;25.40;35.60;;;;;;4926368;28;45288;-60
2023/06/13 07:03:23;;;;;;;2.47;1.92;;;25.40;35.70;;;;;;4962250;28;44870;-61
2023/06/13 07:05:48;;;;;;;4.13;1.90;;;25.50;35.60;;;;;;4957641;28;45924;-59
2023/06/13 07:08:14;;;;;;;2.10;1.90;;;25.50;35.10;;;;;;4961679;28;45176;-59
2023/06/13 07:10:40;;;;;;;4.65;2.00;;;25.50;35.10;;;;;;4959385;28;45345;-59
2023/06/13 07:13:06;;;;;;;5.93;1.95;;;25.60;35.20;;;;;;4956241;28;45025;-59
2023/06/13 07:15:31;;;;;;;3.58;2.10;;;25.60;35.10;;;;;;4959014;28;46191;-59
2023/06/13 07:17:57;;;;;;;2.38;1.83;;;25.70;35.10;;;;;;4948545;28;44933;-59
2023/06/13 07:20:22;;;;;;;2.33;1.70;;;25.70;34.60;;;;;;4953668;28;45176;-60
2023/06/13 07:22:48;;;;;;;2.60;1.80;;;25.70;34.30;;;;;;4954467;28;45105;-59
2023/06/13 07:25:13;;;;;;;3.55;1.80;;;25.70;34.30;;;;;;4931160;28;46307;-59
2023/06/13 07:27:39;;;;;;;3.00;1.80;;;25.80;34.10;;;;;;4950616;28;45066;-58
2023/06/13 07:30:06;;;;;;;3.80;1.75;;;25.80;33.70;;;;;;4951365;28;44946;-57
2023/06/13 07:32:31;;;;;;;2.55;1.60;;;25.80;33.40;;;;;;4932639;28;45363;-59
2023/06/13 07:34:57;;;;;;;1.83;1.63;;;25.80;32.60;;;;;;4960205;28;45972;-61
2023/06/13 07:37:22;;;;;;;4.70;1.65;;;25.80;32.60;;;;;;4943814;28;45019;-59
2023/06/13 07:39:48;;;;;;;6.03;1.70;;;25.90;32.40;;;;;;4931233;28;45498;-59
2023/06/13 07:42:14;;;;;;;1.77;1.67;;;25.90;32.20;;;;;;4962005;28;45295;-58
2023/06/13 07:44:41;;;;;;;3.60;1.98;;;25.90;31.70;;;;;;4953509;28;45511;-58
2023/06/13 07:47:07;;;;;;;5.60;2.08;;;25.90;31.70;;;;;;4955135;28;44878;-59
2023/06/13 07:49:32;;;;;;;6.55;1.85;;;26.00;31.50;;;;;;4949679;28;45042;-57
2023/06/13 07:51:58;;;;;;;4.68;1.85;;;26.00;31.10;;;;;;4948275;28;45104;-58
2023/06/13 07:54:23;;;;;;;4.35;1.67;;;25.90;30.50;;;;;;4952808;28;46016;-58
2023/06/13 07:56:50;;;;;;;10.55;1.92;;;25.90;30.40;;;;;;4952093;28;45498;-60
2023/06/13 07:59:16;;;;;;;2.60;1.83;;;25.90;30.40;;;;;;4950751;28;45275;-59
2023/06/13 08:01:41;;;;;;;2.95;2.28;;;25.90;30.20;;;;;;4953058;28;44773;-57
2023/06/13 08:04:07;;;;;;;4.60;2.20;;;25.90;30.20;;;;;;4965599;28;45226;-61
2023/06/13 08:06:33;;;;;;;4.70;2.58;;;26.00;30.20;;;;;;4947685;28;45428;-59
2023/06/13 08:08:58;;;;;;;9.18;2.67;;;26.10;30.10;;;;;;4963424;28;44746;-59
2023/06/13 08:11:24;;;;;;;7.50;2.60;;;26.10;30.00;;;;;;4940922;28;45166;-59
2023/06/13 08:13:49;;;;;;;5.28;2.70;;;26.00;29.80;;;;;;4953186;28;45527;-56
2023/06/13 08:16:15;;;;;;;7.47;2.58;;;26.10;29.80;;;;;;4958345;28;45141;-56
2023/06/13 08:18:40;;;;;;;7.47;2.55;;;26.10;29.80;;;;;;4954092;28;46019;-59
2023/06/13 08:21:06;;;;;;;6.32;2.38;;;26.10;29.70;;;;;;4956578;28;45110;-60
2023/06/13 08:23:32;;;;;;;2.60;1.77;;;26.10;29.60;;;;;;4951295;28;45732;-60
2023/06/13 08:25:57;;;;;;;4.78;2.00;;;26.10;29.30;;;;;;4961147;28;44898;-59
2023/06/13 08:28:23;;;;;;;5.15;1.98;;;26.10;29.40;;;;;;4949586;28;45099;-59
2023/06/13 08:30:49;;;;;;;4.72;1.83;;;26.10;29.50;;;;;;4947993;28;44894;-61
2023/06/13 08:33:15;;;;;;;3.17;2.08;;;26.10;29.40;;;;;;4953000;28;45027;-61
2023/06/13 08:35:40;;;;;;;4.88;2.30;;;26.10;29.40;;;;;;4954505;28;44783;-58
2023/06/13 08:38:06;;;;;;;6.82;2.17;;;26.10;29.40;;;;;;4939215;28;45030;-59
2023/06/13 08:40:31;;;;;;;3.13;2.00;;;26.10;29.40;;;;;;4948084;28;44769;-57
2023/06/13 08:42:58;;;;;;;2.88;1.98;;;26.20;29.50;;;;;;4954897;28;45383;-59
2023/06/13 08:45:24;;;;;;;3.40;2.10;;;26.20;29.50;;;;;;4947043;28;45030;-60
2023/06/13 08:47:50;;;;;;;5.68;1.95;;;26.20;29.60;;;;;;4948344;28;45328;-60
2023/06/13 08:50:18;;;;;;;6.75;2.13;;;26.20;29.60;;;;;;4950545;28;44917;-58
2023/06/13 08:52:45;;;;;;;4.85;2.10;;;26.30;29.60;;;;;;4953291;28;46394;-59
2023/06/13 08:55:17;;;;;;;4.03;1.75;;;26.30;29.60;;;;;;4946369;28;45313;-59
2023/06/13 08:57:45;;;;;;;8.52;2.10;;;26.40;29.40;;;;;;4950252;28;45110;-60
2023/06/13 09:00:15;;;;;;;4.22;2.28;;;26.30;29.50;;;;;;4933668;28;45379;-60
2023/06/13 09:02:45;;;;;;;4.95;2.03;;;26.40;29.50;;;;;;4948718;28;45500;-59
2023/06/13 09:05:15;;;;;;;2.67;1.90;;;26.40;29.50;;;;;;4927982;28;46180;-61
2023/06/13 09:07:41;;;;;;;2.50;1.67;;;26.40;29.30;;;;;;4951081;28;44955;-59
2023/06/13 09:10:07;;;;;;;4.30;1.90;;;26.40;29.50;;;;;;4948131;28;45414;-62
2023/06/13 09:12:32;;;;;;;9.00;2.53;;;26.50;30.00;;;;;;4952722;28;45407;-59
2023/06/13 09:14:58;;;;;;;4.72;1.83;;;26.50;29.50;;;;;;4949569;28;45118;-59
2023/06/13 09:17:24;;;;;;;6.45;1.70;;;26.50;29.50;;;;;;4933394;28;45450;-60
2023/06/13 09:19:50;;;;;;;3.58;1.92;;;26.50;29.60;;;;;;4944015;28;45182;-63
2023/06/13 09:22:17;;;;;;;6.50;1.83;;;26.60;29.40;;;;;;4953819;28;45669;-59
2023/06/13 09:24:42;;;;;;;4.18;1.70;;;26.60;29.50;;;;;;4918561;28;45332;-59
2023/06/13 09:27:08;;;;;;;2.33;1.80;;;26.60;29.40;;;;;;4931203;28;45170;-61
2023/06/13 09:29:34;;;;;;;2.53;1.60;;;26.60;29.30;;;;;;4942072;28;45325;-58
2023/06/13 09:32:00;;;;;;;1.83;1.63;;;26.70;29.40;;;;;;4923154;28;46141;-58
2023/06/13 09:34:28;;;;;;;9.00;2.00;;;26.70;29.40;;;;;;4945747;28;45557;-61
2023/06/13 09:36:55;;;;;;;4.85;1.73;;;26.70;29.40;;;;;;4926039;28;45554;-57
2023/06/13 09:39:20;;;;;;;3.30;1.95;;;26.70;29.30;;;;;;4931742;28;46351;-59
2023/06/13 09:41:52;;;;;;;3.75;1.73;;;26.80;29.30;;;;;;4942631;28;45619;-62
2023/06/13 09:44:18;;;;;;;3.15;1.70;;;26.80;29.20;;;;;;4924953;28;44660;-58
2023/06/13 09:46:43;;;;;;;6.32;1.58;;;26.80;29.20;;;;;;4929212;28;44711;-60
2023/06/13 09:49:09;;;;;;;4.40;1.65;;;26.90;29.30;;;;;;4930145;28;45756;-57
2023/06/13 09:51:35;;;;;;;1.50;1.30;;;26.90;29.30;;;;;;4940186;28;45496;-59
2023/06/13 09:54:00;;;;;;;1.67;1.58;;;26.90;29.30;;;;;;4950600;28;45241;-57
2023/06/13 09:56:26;;;;;;;3.63;1.80;;;26.90;29.30;;;;;;4949504;28;45222;-60
2023/06/13 09:58:52;;;;;;;3.60;1.58;;;27.00;29.30;;;;;;4928818;28;45250;-57
2023/06/13 10:01:18;;;;;;;4.45;1.65;;;27.00;29.30;;;;;;4941069;28;45444;-61
2023/06/13 10:03:44;;;;;;;2.47;1.83;;;27.00;29.30;;;;;;4943940;28;45254;-59
2023/06/13 10:06:10;;;;;;;5.82;2.10;;;27.10;29.30;;;;;;4942853;28;45297;-59
2023/06/13 10:08:36;;;;;;;5.38;1.65;;;27.10;29.20;;;;;;4933578;28;45580;-58
2023/06/13 10:11:13;;;;;;;5.68;1.63;;;27.10;29.20;;;;;;4936019;28;45479;-60
2023/06/13 10:13:56;;;;;;;3.00;1.92;;;27.20;28.80;;;;;;4933892;28;45481;-57
2023/06/13 10:16:21;;;;;;;2.53;1.75;;;27.20;29.00;;;;;;4925541;28;45522;-57
2023/06/13 10:18:48;;;;;;;2.50;1.58;;;27.20;29.00;;;;;;4932116;28;44918;-58
2023/06/13 10:21:13;;;;;;;3.38;1.55;;;27.30;29.10;;;;;;4916478;28;46858;-56
2023/06/13 10:23:46;;;;;;;4.32;1.70;;;27.30;29.00;;;;;;4935190;28;45250;-59
2023/06/13 10:26:15;;;;;;;;;;;27.30;28.70;;;;;;4930641;28;45493;-57
2023/06/13 10:28:46;;;;;;;3.60;1.85;;;27.30;28.40;;;;;;4939266;28;44928;-60
2023/06/13 10:31:35;;;;;;;3.65;2.10;;;27.30;28.60;;;;;;4934892;28;45960;-58
2023/06/13 10:34:07;;;;;;;4.57;1.60;;;27.30;28.70;;;;;;4903952;28;45085;-59
2023/06/13 10:36:42;;;;;;;1.95;1.60;;;27.40;28.70;;;;;;4940610;28;45179;-60
2023/06/13 10:39:19;;;;;;;3.58;1.75;;;27.40;28.70;;;;;;4943615;28;45235;-58
2023/06/13 10:42:18;;;;;;;4.10;1.73;;;27.40;28.40;;;;;;4943893;28;45056;-60
2023/06/13 10:44:54;;;;;;;4.55;1.70;;;27.50;28.10;;;;;;4944567;28;45009;-59
2023/06/13 10:47:20;;;;;;;3.97;2.03;;;27.50;28.20;;;;;;4931901;28;45714;-60
2023/06/13 10:49:47;;;;;;;7.25;1.90;;;27.50;28.50;;;;;;4918150;28;45687;-60
2023/06/13 10:52:13;;;;;;;2.22;1.50;;;27.50;28.40;;;;;;4938938;28;46231;-63
2023/06/13 10:54:40;;;;;;;3.63;1.65;;;27.50;28.60;;;;;;4933236;28;45461;-62
2023/06/13 10:57:06;;;;;;;5.72;2.28;;;27.50;28.60;;;;;;4945064;28;44920;-63
2023/06/13 10:59:36;;;;;;;2.58;1.90;;;27.60;28.50;;;;;;4937513;28;44893;-61
2023/06/13 11:02:02;;;;;;;3.67;1.88;;;27.60;28.20;;;;;;4936863;28;46166;-61
2023/06/13 11:04:28;;;;;;;5.25;1.92;;;27.60;28.40;;;;;;4936577;28;45315;-60
2023/06/13 11:07:14;;;;;;;4.20;1.75;;;27.60;28.20;;;;;;4931262;28;45584;-60
2023/06/13 11:09:40;;;;;;;4.13;1.65;;;27.60;27.60;;;;;;4935436;28;45223;-60
2023/06/13 11:12:06;;;;;;;2.75;1.80;;;27.60;27.50;;;;;;4910443;28;45437;-61
2023/06/13 11:14:32;;;;;;;4.75;1.80;;;27.60;27.30;;;;;;4929517;28;45402;-62
2023/06/13 11:16:58;;;;;;;5.28;1.80;;;27.70;27.10;;;;;;4927042;28;45321;-61
2023/06/13 11:19:27;;;;;;;4.95;2.17;;;27.70;27.10;;;;;;4917960;28;44929;-61
2023/06/13 11:22:02;;;;;;;3.60;1.40;;;27.70;27.10;;;;;;4942498;28;45620;-60
2023/06/13 11:24:29;;;;;;;3.63;2.08;;;27.70;26.80;;;;;;4948656;28;45153;-57
2023/06/13 11:26:55;;;;;;;1.90;1.70;;;27.70;27.10;;;;;;4930117;28;45643;-59
2023/06/13 11:29:21;;;;;;;4.15;1.60;;;27.70;27.10;;;;;;4937875;28;45435;-61
2023/06/13 11:31:47;;;;;;;3.35;1.60;;;27.70;27.20;;;;;;4931687;28;46640;-60
2023/06/13 11:34:16;;;;;;;5.88;1.80;;;27.70;27.30;;;;;;4934944;28;45426;-64
2023/06/13 11:36:43;;;;;;;2.22;1.63;;;27.80;27.20;;;;;;4924213;28;45580;-58
2023/06/13 11:39:30;;;;;;;4.35;1.70;;;27.80;27.40;;;;;;4946202;28;45417;-58
2023/06/13 11:41:56;;;;;;;4.68;1.50;;;27.80;27.30;;;;;;4942859;28;46154;-60
2023/06/13 11:44:22;;;;;;;2.60;1.73;;;27.80;27.60;;;;;;4946385;28;45465;-62
2023/06/13 11:46:47;;;;;;;9.02;1.80;;;27.80;27.50;;;;;;4924158;28;45226;-61
2023/06/13 11:49:16;;;;;;;3.50;1.70;;;27.90;27.70;;;;;;4916100;28;45339;-62
2023/06/13 11:51:42;;;;;;;2.58;1.77;;;27.90;27.70;;;;;;4932122;28;45500;-58
2023/06/13 11:54:08;;;;;;;2.97;1.98;;;28.00;27.60;;;;;;4931971;28;45488;-59
2023/06/13 11:56:40;;;;;;;4.72;1.83;;;28.00;27.50;;;;;;4930312;28;45326;-59
2023/06/13 11:59:16;;;;;;;5.35;1.88;;;28.00;27.40;;;;;;4942156;28;45573;-61
2023/06/13 12:01:43;;;;;;;3.65;1.73;;;28.00;27.00;;;;;;4924291;28;46215;-60
2023/06/13 12:04:10;;;;;;;4.22;2.08;;;28.00;27.30;;;;;;4946463;28;45235;-62
2023/06/13 12:06:38;;;;;;;3.22;2.08;;;28.00;27.20;;;;;;4944083;28;46665;-61
2023/06/13 12:09:04;;;;;;;5.32;2.00;;;28.00;27.20;;;;;;4949345;28;45830;-62
2023/06/13 12:11:31;;;;;;;3.72;1.60;;;28.00;27.20;;;;;;4926693;28;45597;-62
2023/06/13 12:13:58;;;;;;;2.63;2.00;;;28.00;27.10;;;;;;4937338;28;45375;-61
2023/06/13 12:16:31;;;;;;;2.47;1.73;;;28.00;27.20;;;;;;4926135;28;45226;-62
2023/06/13 12:18:57;;;;;;;4.70;1.90;;;28.10;27.20;;;;;;4917466;28;44913;-61
2023/06/13 12:21:29;;;;;;;3.35;2.03;;;28.10;27.20;;;;;;4927764;28;45614;-61
2023/06/13 12:24:00;;;;;;;6.40;2.10;;;28.10;27.20;;;;;;4925947;28;45434;-61
2023/06/13 12:26:26;;;;;;;2.33;1.75;;;28.10;27.20;;;;;;4931460;28;45261;-62
2023/06/13 12:28:55;;;;;;;3.85;1.52;;;28.10;27.30;;;;;;4931673;28;44943;-61
2023/06/13 12:31:38;;;;;;;6.03;1.90;;;28.10;27.20;;;;;;4940210;28;45511;-62
2023/06/13 12:34:29;;;;;;;4.22;1.85;;;28.20;26.50;;;;;;4910915;28;45037;-58
2023/06/13 12:37:05;;;;;;;2.50;1.45;;;28.10;25.90;;;;;;4948463;28;45835;-57
2023/06/13 12:39:34;;;;;;;4.40;1.90;;;28.10;25.90;;;;;;4932743;28;45197;-61
2023/06/13 12:42:02;;;;;;;3.85;1.88;;;28.10;26.70;;;;;;4923479;28;45678;-58
2023/06/13 12:44:33;;;;;;;1.85;1.55;;;28.10;26.50;;;;;;4942879;28;45313;-60
2023/06/13 12:47:02;;;;;;;7.18;2.05;;;28.10;26.40;;;;;;4932602;28;45253;-59
2023/06/13 12:49:33;;;;;;;4.32;1.77;;;28.10;26.40;;;;;;4940486;28;45698;-59
2023/06/13 12:51:58;;;;;;;2.60;1.73;;;28.20;26.60;;;;;;4924269;28;46216;-60
2023/06/13 12:54:24;;;;;;;2.38;1.75;;;28.20;26.50;;;;;;4943226;28;45017;-57
2023/06/13 12:56:54;;;;;;;2.20;1.45;;;28.20;26.20;;;;;;4947623;28;45489;-64
2023/06/13 12:59:33;;;;;;;2.65;1.63;;;28.20;26.00;;;;;;4922890;28;44748;-59
2023/06/13 13:02:08;;;;;;;2.15;1.42;;;28.20;25.40;;;;;;4924397;28;45383;-61
2023/06/13 13:04:34;;;;;;;2.78;1.55;;;28.20;26.00;;;;;;4927071;28;45279;-57
2023/06/13 13:07:00;;;;;;;2.80;1.80;;;28.20;26.10;;;;;;4912328;28;45488;-59
2023/06/13 13:09:27;;;;;;;3.30;1.77;;;28.20;26.10;;;;;;4923039;28;44897;-60
2023/06/13 13:11:55;;;;;;;2.55;1.42;;;28.20;26.10;;;;;;4927102;28;45229;-60
2023/06/13 13:14:24;;;;;;;2.72;1.70;;;28.20;26.00;;;;;;4944458;28;44610;-62
2023/06/13 13:16:51;;;;;;;2.78;1.77;;;28.30;26.10;;;;;;4932742;28;44729;-62
2023/06/13 13:19:17;;;;;;;1.52;1.40;;;28.30;26.30;;;;;;4942674;28;45284;-63
2023/06/13 13:21:42;;;;;;;4.00;1.83;;;28.30;26.20;;;;;;4931192;28;46369;-62
2023/06/13 13:24:08;;;;;;;3.60;1.98;;;28.30;26.20;;;;;;4936723;28;44718;-62
2023/06/13 13:26:33;;;;;;;1.90;1.60;;;28.30;26.30;;;;;;4949422;28;45293;-62
2023/06/13 13:28:59;;;;;;;2.95;2.00;;;28.30;26.30;;;;;;4953438;28;44776;-62
2023/06/13 13:31:25;;;;;;;4.45;1.77;;;28.30;26.10;;;;;;4915734;28;46520;-62
2023/06/13 13:33:50;;;;;;;2.45;1.48;;;28.30;26.00;;;;;;4922283;28;45396;-62
2023/06/13 13:36:16;;;;;;;5.03;2.00;;;28.30;25.60;;;;;;4935961;28;45136;-63
2023/06/13 13:38:41;;;;;;;1.92;1.75;;;28.30;25.60;;;;;;4931956;28;45658;-63
2023/06/13 13:41:07;;;;;;;2.65;2.00;;;28.30;25.70;;;;;;4948621;28;45884;-59
2023/06/13 13:43:33;;;;;;;6.63;1.67;;;28.40;25.60;;;;;;4946783;28;46768;-58
2023/06/13 13:45:59;;;;;;;3.08;1.55;;;28.40;25.60;;;;;;4923530;28;45077;-69
2023/06/13 13:48:24;;;;;;;3.67;1.48;;;28.40;25.60;;;;;;4951975;28;44982;-56
2023/06/13 13:50:50;;;;;;;2.90;1.52;;;28.40;25.60;;;;;;4935593;28;46539;-61
2023/06/13 13:53:16;;;;;;;3.30;1.63;;;28.40;25.70;;;;;;4945964;28;45034;-59
2023/06/13 13:55:42;;;;;;;3.30;1.85;;;28.40;25.70;;;;;;4937112;28;45277;-60
2023/06/13 13:58:09;;;;;;;2.53;1.88;;;28.40;25.50;;;;;;4934700;28;45489;-62
2023/06/13 14:00:35;;;;;;;2.63;1.77;;;28.40;25.50;;;;;;4946451;28;45364;-62
2023/06/13 14:03:01;;;;;;;3.25;1.90;;;28.40;25.60;;;;;;4946429;28;46014;-59
2023/06/13 14:05:26;;;;;;;1.98;1.75;;;28.40;25.50;;;;;;4933992;28;45060;-67
2023/06/13 14:07:52;;;;;;;3.22;1.88;;;28.40;25.40;;;;;;4951145;28;44797;-62
2023/06/13 14:10:18;;;;;;;2.58;1.80;;;28.40;25.20;;;;;;4930243;28;45359;-65
2023/06/13 14:12:48;;;;;;;1.50;1.40;;;28.40;25.30;;;;;;4907268;28;45091;-62
2023/06/13 14:15:14;;;;;;;2.05;1.50;;;28.40;25.00;;;;;;4948933;28;45194;-62
2023/06/13 14:17:39;;;;;;;5.65;1.85;;;28.40;25.00;;;;;;4943410;28;45189;-65
2023/06/13 14:20:06;;;;;;;2.47;1.90;;;28.40;25.10;;;;;;4936293;28;45325;-64
2023/06/13 14:22:31;;;;;;;2.63;1.80;;;28.40;25.10;;;;;;4946171;28;45228;-61
2023/06/13 14:24:57;;;;;;;3.88;1.77;;;28.40;24.90;;;;;;4933686;28;45404;-62
2023/06/13 14:27:23;;;;;;;3.45;1.58;;;28.40;24.90;;;;;;4944533;28;45389;-65
2023/06/13 14:29:50;;;;;;;3.33;1.85;;;28.40;25.40;;;;;;4944639;28;46218;-62
2023/06/13 14:32:15;;;;;;;5.07;1.63;;;28.40;24.80;;;;;;4929465;28;45403;-62
2023/06/13 14:34:41;;;;;;;4.53;1.95;;;28.40;24.80;;;;;;4948250;28;44888;-65
2023/06/13 14:37:06;;;;;;;2.30;1.70;;;28.40;24.80;;;;;;4934404;28;45416;-64
2023/06/13 14:39:32;;;;;;;2.05;1.70;;;28.40;25.10;;;;;;4951608;28;45747;-59
2023/06/13 14:41:58;;;;;;;4.40;1.90;;;28.40;25.10;;;;;;4935609;28;45182;-61
2023/06/13 14:44:23;;;;;;;3.33;1.70;;;28.30;25.00;;;;;;4952942;28;46334;-58
2023/06/13 14:46:49;;;;;;;4.15;1.85;;;28.40;25.20;;;;;;4920546;28;46620;-67
2023/06/13 14:49:14;;;;;;;2.45;1.73;;;28.40;25.30;;;;;;4949174;28;45464;-65
2023/06/13 14:51:40;;;;;;;2.90;1.80;;;28.40;25.50;;;;;;4933011;28;44662;-59
2023/06/13 14:54:06;;;;;;;4.25;1.80;;;28.40;25.60;;;;;;4945555;28;44967;-64
2023/06/13 14:56:31;;;;;;;4.63;1.85;;;28.40;25.90;;;;;;4940829;28;45546;-64
2023/06/13 14:58:57;;;;;;;7.50;1.63;;;28.40;25.80;;;;;;4949432;28;45175;-61
2023/06/13 15:01:22;;;;;;;2.72;1.70;;;28.40;25.90;;;;;;4924748;28;44948;-64
2023/06/13 15:03:50;;;;;;;2.40;1.75;;;28.40;25.80;;;;;;4929246;28;45221;-63
2023/06/13 15:06:16;;;;;;;2.80;1.77;;;28.40;25.60;;;;;;4904781;28;45214;-64
2023/06/13 15:08:42;;;;;;;2.88;1.90;;;28.40;25.50;;;;;;4933887;28;45284;-63
2023/06/13 15:11:09;;;;;;;3.92;1.90;;;28.40;25.50;;;;;;4928404;28;45265;-63
2023/06/13 15:13:35;;;;;;;3.05;1.75;;;28.40;25.50;;;;;;4934401;28;46092;-64
2023/06/13 15:16:01;;;;;;;2.47;1.75;;;28.40;25.40;;;;;;4924434;28;45119;-64
2023/06/13 15:18:32;;;;;;;2.45;1.70;;;28.40;25.50;;;;;;4930292;28;46226;-63
2023/06/13 15:20:58;;;;;;;2.22;1.88;;;28.40;25.40;;;;;;4929246;28;45284;-63
2023/06/13 15:23:24;;;;;;;2.20;1.55;;;28.40;25.60;;;;;;4928788;28;44984;-63
2023/06/13 15:25:50;;;;;;;1.63;1.52;;;28.40;25.80;;;;;;4925852;28;45496;-67
2023/06/13 15:28:15;;;;;;;2.50;1.90;;;28.40;25.60;;;;;;4926201;28;45164;-60
2023/06/13 15:30:41;;;;;;;3.85;1.98;;;28.40;25.50;;;;;;4920430;28;44984;-61
2023/06/13 15:33:06;;;;;;;7.22;1.95;;;28.40;25.70;;;;;;4921369;28;44718;-64
2023/06/13 15:35:32;;;;;;;6.28;1.77;;;28.40;26.30;;;;;;4938084;28;45752;-64
2023/06/13 15:37:57;;;;;;;2.40;1.75;;;28.30;25.70;;;;;;4914188;28;45486;-65
2023/06/13 15:40:23;;;;;;;2.15;1.63;;;28.30;25.60;;;;;;4925211;28;45209;-64
2023/06/13 15:42:49;;;;;;;3.25;1.80;;;28.30;25.70;;;;;;4933832;28;44834;-67
2023/06/13 15:45:14;;;;;;;4.95;1.50;;;28.30;25.80;;;;;;4921405;28;45658;-61
2023/06/13 15:47:40;;;;;;;2.97;1.75;;;28.30;25.70;;;;;;4922103;28;45653;-65